createdAt,value
2022-10-26T00:00:21.090Z,1005.55
2022-10-26T00:05:21.080Z,1005.60
2022-10-26T00:10:20.865Z,1005.55
2022-10-26T00:15:20.948Z,1005.63
2022-10-26T00:20:20.833Z,1005.58
2022-10-26T00:25:20.727Z,1005.63
2022-10-26T00:30:20.793Z,1005.67
2022-10-26T00:35:24.284Z,1005.65
2022-10-26T00:40:21.451Z,1005.64
2022-10-26T00:45:20.400Z,1005.76
2022-10-26T00:50:20.340Z,1005.68
2022-10-26T00:55:20.552Z,1005.70
2022-10-26T01:00:20.257Z,1005.70
2022-10-26T01:05:20.173Z,1005.80
2022-10-26T01:10:20.084Z,1005.75
2022-10-26T01:15:20.016Z,1005.68
2022-10-26T01:20:19.970Z,1005.73
2022-10-26T01:25:19.929Z,1005.70
2022-10-26T01:30:19.814Z,1005.61
2022-10-26T01:35:19.769Z,1005.62
2022-10-26T01:40:19.697Z,1005.64
2022-10-26T01:45:19.610Z,1005.70
2022-10-26T01:50:19.560Z,1005.66
2022-10-26T01:55:19.489Z,1005.62
2022-10-26T02:00:19.460Z,1005.60
2022-10-26T02:05:19.386Z,1005.68
2022-10-26T02:10:19.293Z,1005.60
2022-10-26T02:15:19.208Z,1005.54
2022-10-26T02:20:19.177Z,1005.64
2022-10-26T02:25:19.083Z,1005.65
2022-10-26T02:30:19.026Z,1005.48
2022-10-26T02:35:19.008Z,1005.40
2022-10-26T02:40:18.942Z,1005.43
2022-10-26T02:45:18.822Z,1005.45
2022-10-26T02:50:18.818Z,1005.38
2022-10-26T02:55:18.703Z,1005.43
2022-10-26T03:00:18.727Z,1005.44
2022-10-26T03:05:18.844Z,1005.40
2022-10-26T03:10:18.562Z,1005.43
2022-10-26T03:15:18.444Z,1005.46
2022-10-26T03:20:18.422Z,1005.46
2022-10-26T03:25:18.299Z,1005.49
2022-10-26T03:30:18.251Z,1005.54
2022-10-26T03:35:18.144Z,1005.43
2022-10-26T03:40:18.094Z,1005.42
2022-10-26T03:45:18.054Z,1005.39
2022-10-26T03:50:17.954Z,1005.50
2022-10-26T03:55:17.902Z,1005.52
2022-10-26T04:00:17.837Z,1005.52
2022-10-26T04:05:17.803Z,1005.50
2022-10-26T04:10:17.753Z,1005.51
2022-10-26T04:15:17.637Z,1005.45
2022-10-26T04:20:17.581Z,1005.47
2022-10-26T04:25:17.541Z,1005.53
2022-10-26T04:30:17.446Z,1005.35
2022-10-26T04:35:17.391Z,1005.45
2022-10-26T04:40:17.302Z,1005.43
2022-10-26T04:45:17.234Z,1005.41
2022-10-26T04:50:17.169Z,1005.37
2022-10-26T04:55:17.112Z,1005.29
2022-10-26T05:00:17.069Z,1005.25
2022-10-26T05:05:16.972Z,1005.27
2022-10-26T05:10:16.903Z,1005.36
2022-10-26T05:15:16.911Z,1005.24
2022-10-26T05:20:16.832Z,1005.26
2022-10-26T05:25:16.805Z,1005.24
2022-10-26T05:30:16.708Z,1005.20
2022-10-26T05:35:16.571Z,1005.25
2022-10-26T05:40:16.506Z,1005.33
2022-10-26T05:45:16.454Z,1005.36
2022-10-26T05:50:16.368Z,1005.39
2022-10-26T05:55:16.349Z,1005.38
2022-10-26T06:00:16.447Z,1005.44
2022-10-26T06:05:16.224Z,1005.41
2022-10-26T06:10:16.165Z,1005.45
2022-10-26T06:15:16.072Z,1005.61
2022-10-26T06:20:15.971Z,1005.63
2022-10-26T06:25:15.920Z,1005.68
2022-10-26T06:30:15.896Z,1005.88
2022-10-26T06:35:15.950Z,1005.82
2022-10-26T06:40:15.743Z,1005.81
2022-10-26T06:45:15.737Z,1005.76
2022-10-26T06:50:15.615Z,1005.79
2022-10-26T06:55:15.534Z,1005.70
2022-10-26T07:00:15.605Z,1005.70
2022-10-26T07:05:15.518Z,1005.64
2022-10-26T07:10:15.329Z,1005.74
2022-10-26T07:15:15.366Z,1005.81
2022-10-26T07:20:15.234Z,1005.73
2022-10-26T07:25:15.131Z,1005.66
2022-10-26T07:30:15.258Z,1005.66
2022-10-26T07:35:15.274Z,1005.72
2022-10-26T07:40:14.973Z,1005.76
2022-10-26T07:45:14.870Z,1005.69
2022-10-26T07:50:14.800Z,1005.66
2022-10-26T07:55:14.724Z,1005.75
2022-10-26T08:00:14.691Z,1005.76
2022-10-26T08:05:14.652Z,1005.70
2022-10-26T08:10:14.552Z,1005.65
2022-10-26T08:15:14.487Z,1005.70
2022-10-26T08:20:14.446Z,1005.66
2022-10-26T08:25:17.533Z,1005.66
2022-10-26T08:30:15.289Z,1005.69
2022-10-26T08:35:14.347Z,1005.69
2022-10-26T08:40:14.163Z,1005.74
2022-10-26T08:45:14.126Z,1005.64
2022-10-26T08:50:14.035Z,1005.63
2022-10-26T08:55:13.943Z,1005.62
2022-10-26T09:00:13.906Z,1005.53
2022-10-26T09:05:13.831Z,1005.60
2022-10-26T09:10:13.813Z,1005.57
2022-10-26T09:15:13.677Z,1005.57
2022-10-26T09:20:13.626Z,1005.54
2022-10-26T09:25:13.535Z,1005.56
2022-10-26T09:30:13.487Z,1005.58
2022-10-26T09:35:13.441Z,1005.53
2022-10-26T09:40:13.650Z,1005.61
2022-10-26T09:45:13.282Z,1005.60
2022-10-26T09:50:13.223Z,1005.63
2022-10-26T09:55:13.190Z,1005.66
2022-10-26T10:00:13.084Z,1005.64
2022-10-26T10:05:19.448Z,1005.54
2022-10-26T10:10:13.973Z,1005.53
2022-10-26T10:15:12.865Z,1005.53
2022-10-26T10:20:12.824Z,1005.55
2022-10-26T10:25:12.757Z,1005.50
2022-10-26T10:30:12.692Z,1005.47
2022-10-26T10:35:12.644Z,1005.40
2022-10-26T10:40:14.232Z,1005.37
2022-10-26T10:45:12.505Z,1005.44
2022-10-26T10:50:12.555Z,1005.42
2022-10-26T10:55:12.685Z,1005.30
2022-10-26T11:00:12.298Z,1005.28
2022-10-26T11:05:12.274Z,1005.32
2022-10-26T11:10:12.986Z,1005.24
2022-10-26T11:15:12.108Z,1005.30
2022-10-26T11:20:14.853Z,1005.28
2022-10-26T11:25:11.968Z,1005.29
2022-10-26T11:30:11.991Z,1005.19
2022-10-26T11:35:11.849Z,1005.21
2022-10-26T11:40:11.781Z,1005.12
2022-10-26T11:45:11.733Z,1005.12
2022-10-26T11:50:14.732Z,1005.22
2022-10-26T11:55:12.556Z,1005.26
2022-10-26T12:00:11.625Z,1005.43
2022-10-26T12:05:11.472Z,1005.27
2022-10-26T12:10:11.402Z,1005.27
2022-10-26T12:15:11.298Z,1005.25
2022-10-26T12:20:11.314Z,1005.29
2022-10-26T12:25:14.791Z,1005.31
2022-10-26T12:30:11.114Z,1005.37
2022-10-26T12:35:11.053Z,1005.22
2022-10-26T12:40:10.981Z,1005.35
2022-10-26T12:45:10.931Z,1005.42
2022-10-26T12:50:10.848Z,1005.39
2022-10-26T12:55:10.783Z,1005.45
2022-10-26T13:00:10.743Z,1005.35
2022-10-26T13:05:10.638Z,1005.35
2022-10-26T13:10:10.581Z,1005.39
2022-10-26T13:15:10.515Z,1005.45
2022-10-26T13:20:10.482Z,1005.42
2022-10-26T13:25:10.397Z,1005.49
2022-10-26T13:30:10.670Z,1005.43
2022-10-26T13:35:10.267Z,1005.42
2022-10-26T13:40:10.201Z,1005.48
2022-10-26T13:45:10.125Z,1005.46
2022-10-26T13:50:10.082Z,1005.48
2022-10-26T13:55:09.993Z,1005.53
2022-10-26T14:00:09.999Z,1005.57
2022-10-26T14:05:09.897Z,1005.63
2022-10-26T14:10:09.892Z,1005.56
2022-10-26T14:15:09.747Z,1005.67
2022-10-26T14:20:09.873Z,1005.54
2022-10-26T14:25:09.621Z,1005.51
2022-10-26T14:30:22.112Z,1005.54
2022-10-26T14:35:10.476Z,1005.52
2022-10-26T14:40:09.440Z,1005.70
2022-10-26T14:45:18.973Z,1005.81
2022-10-26T14:50:10.280Z,1005.78
2022-10-26T14:55:09.190Z,1005.92
2022-10-26T15:00:09.895Z,1005.89
2022-10-26T15:05:09.083Z,1005.91
2022-10-26T15:10:09.013Z,1005.92
2022-10-26T15:15:09.057Z,1005.88
2022-10-26T15:20:08.911Z,1005.92
2022-10-26T15:25:08.823Z,1005.90
2022-10-26T15:30:08.762Z,1006.05
2022-10-26T15:35:08.689Z,1006.01
2022-10-26T15:40:08.644Z,1006.08
2022-10-26T15:45:08.585Z,1006.08
2022-10-26T15:50:08.506Z,1006.04
2022-10-26T15:55:08.395Z,1006.17
2022-10-26T16:00:08.439Z,1006.27
2022-10-26T16:05:08.295Z,1006.32
2022-10-26T16:10:08.223Z,1006.41
2022-10-26T16:15:08.186Z,1006.37
2022-10-26T16:20:09.208Z,1006.40
2022-10-26T16:25:08.027Z,1006.43
2022-10-26T16:30:07.950Z,1006.57
2022-10-26T16:35:07.881Z,1006.58
2022-10-26T16:40:07.813Z,1006.58
2022-10-26T16:45:07.758Z,1006.58
2022-10-26T16:50:07.720Z,1006.75
2022-10-26T16:55:07.601Z,1006.78
2022-10-26T17:00:07.580Z,1006.76
2022-10-26T17:05:07.785Z,1006.80
2022-10-26T17:10:07.439Z,1006.79
2022-10-26T17:15:07.379Z,1006.89
2022-10-26T17:20:07.622Z,1007.00
2022-10-26T17:25:07.291Z,1007.06
2022-10-26T17:30:07.179Z,1007.13
2022-10-26T17:35:07.186Z,1007.27
2022-10-26T17:40:07.174Z,1007.35
2022-10-26T17:45:07.052Z,1007.43
2022-10-26T17:50:06.911Z,1007.49
2022-10-26T17:55:06.868Z,1007.54
2022-10-26T18:00:06.841Z,1007.57
2022-10-26T18:05:07.664Z,1007.62
2022-10-26T18:10:19.642Z,1007.72
2022-10-26T18:15:07.941Z,1007.90
2022-10-26T18:20:06.619Z,1007.84
2022-10-26T18:25:06.471Z,1007.90
2022-10-26T18:30:06.408Z,1007.98
2022-10-26T18:35:07.761Z,1008.00
2022-10-26T18:40:06.273Z,1008.24
2022-10-26T18:45:06.206Z,1008.24
2022-10-26T18:50:06.167Z,1008.23
2022-10-26T18:55:06.170Z,1008.17
2022-10-26T19:00:05.985Z,1008.28
2022-10-26T19:05:06.097Z,1008.34
2022-10-26T19:10:05.865Z,1008.46
2022-10-26T19:15:05.796Z,1008.59
2022-10-26T19:20:05.737Z,1008.56
2022-10-26T19:25:05.655Z,1008.68
2022-10-26T19:30:05.601Z,1008.73
2022-10-26T19:35:05.562Z,1008.86
2022-10-26T19:40:05.478Z,1008.94
2022-10-26T19:45:05.401Z,1008.98
2022-10-26T19:50:05.338Z,1008.97
2022-10-26T19:55:05.259Z,1009.02
2022-10-26T20:00:05.226Z,1009.09
2022-10-26T20:05:05.148Z,1009.09
2022-10-26T20:10:05.089Z,1009.17
2022-10-26T20:15:05.143Z,1009.18
2022-10-26T20:20:04.986Z,1009.24
2022-10-26T20:25:04.872Z,1009.35
2022-10-26T20:30:05.110Z,1009.38
2022-10-26T20:35:04.769Z,1009.47
2022-10-26T20:40:04.687Z,1009.52
2022-10-26T20:45:04.607Z,1009.51
2022-10-26T20:50:04.577Z,1009.55
2022-10-26T20:55:04.477Z,1009.53
2022-10-26T21:00:04.433Z,1009.50
2022-10-26T21:05:04.360Z,1009.62
2022-10-26T21:10:04.298Z,1009.57
2022-10-26T21:15:04.273Z,1009.74
2022-10-26T21:20:04.168Z,1009.75
2022-10-26T21:25:04.151Z,1009.72
2022-10-26T21:30:04.015Z,1009.83
2022-10-26T21:35:03.963Z,1009.89
2022-10-26T21:40:03.881Z,1009.90
2022-10-26T21:45:03.822Z,1009.92
2022-10-26T21:50:03.740Z,1009.90
2022-10-26T21:55:03.679Z,1009.99
2022-10-26T22:00:03.650Z,1009.93
2022-10-26T22:05:03.543Z,1010.04
2022-10-26T22:10:11.320Z,1010.09
2022-10-26T22:15:04.437Z,1010.12
2022-10-26T22:20:03.423Z,1010.12
2022-10-26T22:25:03.271Z,1010.07
2022-10-26T22:30:03.226Z,1010.08
2022-10-26T22:35:17.449Z,1010.08
2022-10-26T22:40:04.063Z,1010.06
2022-10-26T22:45:03.077Z,1009.99
2022-10-26T22:50:02.950Z,1010.14
2022-10-26T22:55:02.876Z,1010.17
2022-10-26T23:00:02.819Z,1010.27
2022-10-26T23:05:02.763Z,1010.32
2022-10-26T23:10:02.721Z,1010.32
2022-10-26T23:15:02.634Z,1010.28
2022-10-26T23:20:02.581Z,1010.36
2022-10-26T23:25:02.474Z,1010.46
2022-10-26T23:30:02.444Z,1010.55
2022-10-26T23:35:02.397Z,1010.58
2022-10-26T23:40:02.273Z,1010.67
2022-10-26T23:45:02.230Z,1010.64
2022-10-26T23:50:02.209Z,1010.72
2022-10-26T23:55:02.162Z,1010.61
